Time;durP1;ratioP1;P1;durP2;ratioP2;P2;SDS_P1;SDS_P2;PMS_P1;PMS_P2;Temp;Humidity;BMP_temperature;BMP_pressure;BME280_temperature;BME280_humidity;BME280_pressure;Samples;Min_cycle;Max_cycle;Signal;HPM_P1;HPM_P2
2023/06/20 05:43:18;;;;;;;12.25;8.77;;;;;;;;;;4142232;27;20090;-84
2023/06/20 16:09:43;;;;;;;16.55;5.07;;;;;;;;;;4763754;30;20101;-86
2023/06/20 16:12:12;;;;;;;13.40;5.43;;;;;;;;;;4763113;30;20063;-88
2023/06/20 16:14:40;;;;;;;14.90;5.30;;;;;;;;;;4767750;30;20071;-87
2023/06/20 16:20:35;;;;;;;13.95;6.00;;;;;;;;;;4678966;30;20052;-89
2023/06/20 16:23:13;;;;;;;14.18;5.63;;;;;;;;;;4690817;30;20062;-89
2023/06/20 16:29:50;;;;;;;15.15;4.95;;;;;;;;;;4766787;30;20059;-85
2023/06/20 16:31:53;;;;;;;14.43;4.57;;;;;;;;;;4757807;30;20048;-88
2023/06/20 16:34:43;;;;;;;15.20;4.93;;;;;;;;;;4763553;30;20200;-88
2023/06/20 16:37:09;;;;;;;10.73;5.15;;;;;;;;;;4759503;30;20047;-88
2023/06/20 16:39:51;;;;;;;17.08;4.90;;;;;;;;;;4768478;30;20051;-89
2023/06/20 16:42:23;;;;;;;;;;;;;;;;;;4767263;30;20036;-88
2023/06/20 16:44:49;;;;;;;18.95;5.07;;;;;;;;;;4764442;30;20467;-88
2023/06/20 16:47:27;;;;;;;;;;;;;;;;;;;;;
2023/06/20 16:49:53;;;;;;;10.23;5.03;;;;;;;;;;4764826;30;20048;-88
2023/06/20 16:52:19;;;;;;;11.65;4.85;;;;;;;;;;4762857;30;20136;-86
2023/06/20 16:57:24;;;;;;;14.18;5.05;;;;;;;;;;4976376;24;20148;-88
2023/06/20 17:02:48;;;;;;;14.37;4.60;;;;;;;;;;5305450;24;20057;-83
2023/06/20 17:13:01;;;;;;;16.33;5.18;;;;;;;;;;2116610;24;20510;-80
2023/06/20 17:15:27;;;;;;;10.80;4.90;;;;;;;;;;4784843;29;20043;-85
2023/06/20 17:17:55;;;;;;;15.27;5.32;;;;;;;;;;4794495;29;20051;-86
2023/06/20 17:20:21;;;;;;;11.93;4.75;;;;;;;;;;4801119;29;20042;-83
2023/06/20 17:23:03;;;;;;;20.17;5.38;;;;;;;;;;4855718;24;20025;-80
2023/06/20 17:25:31;;;;;;;14.88;4.85;;;;;;;;;;4754423;30;20050;-84
2023/06/20 17:28:44;;;;;;;14.50;5.38;;;;;;;;;;4751445;30;20044;-82
2023/06/20 17:31:32;;;;;;;13.50;5.13;;;;;;;;;;4685737;30;20092;-84
2023/06/20 17:34:11;;;;;;;11.85;5.07;;;;;;;;;;4687373;30;20620;-82
2023/06/20 17:43:05;;;;;;;13.38;4.78;;;;;;;;;;4649207;30;20062;-77
2023/06/20 17:45:53;;;;;;;23.92;5.72;;;;;;;;;;4727121;30;20382;-77
2023/06/20 17:51:59;;;;;;;10.20;4.80;;;;;;;;;;4802874;24;20113;-82
2023/06/20 17:54:26;;;;;;;13.73;4.70;;;;;;;;;;4782665;30;20044;-83
2023/06/20 18:05:08;;;;;;;16.38;4.88;;;;;;;;;;3910270;24;20054;-81
2023/06/20 18:08:05;;;;;;;12.07;4.95;;;;;;;;;;4801746;29;20497;-81
2023/06/20 18:10:44;;;;;;;13.05;5.57;;;;;;;;;;4784322;29;20043;-87
2023/06/20 18:36:50;;;;;;;11.57;5.40;;;;;;;;;;4301607;27;20825;-82
2023/06/20 18:39:22;;;;;;;11.13;4.95;;;;;;;;;;4762035;30;20056;-85
2023/06/20 18:42:14;;;;;;;13.77;5.47;;;;;;;;;;4744834;30;20438;-81
2023/06/20 18:44:40;;;;;;;12.98;4.95;;;;;;;;;;4748712;30;20088;-80
2023/06/20 18:47:06;;;;;;;10.52;5.20;;;;;;;;;;4757396;30;20888;-81
2023/06/20 18:49:32;;;;;;;10.43;4.60;;;;;;;;;;4762187;30;20047;-85
2023/06/20 18:51:58;;;;;;;11.18;4.50;;;;;;;;;;4743016;30;20056;-80
2023/06/20 18:54:24;;;;;;;12.43;4.85;;;;;;;;;;4765250;30;20076;-80
2023/06/20 18:56:50;;;;;;;9.25;4.35;;;;;;;;;;4743611;30;20143;-82
2023/06/20 19:01:52;;;;;;;9.40;5.65;;;;;;;;;;4790243;24;20059;-83
2023/06/20 19:04:18;;;;;;;15.85;5.22;;;;;;;;;;4785656;30;20509;-84
2023/06/20 19:07:03;;;;;;;15.25;5.45;;;;;;;;;;4759416;30;20043;-81
2023/06/20 19:09:30;;;;;;;10.70;4.93;;;;;;;;;;4784732;29;20072;-83
2023/06/20 19:11:56;;;;;;;13.82;4.82;;;;;;;;;;4785647;29;20082;-82
2023/06/20 19:14:22;;;;;;;10.13;4.88;;;;;;;;;;4784968;29;20044;-87
2023/06/20 19:16:48;;;;;;;11.88;5.20;;;;;;;;;;4770485;30;20051;-85
2023/06/20 19:41:38;;;;;;;14.45;5.07;;;;;;;;;;4778419;29;20058;-80
2023/06/20 19:44:21;;;;;;;11.23;4.85;;;;;;;;;;4770782;30;20440;-81
2023/06/20 19:53:50;;;;;;;9.80;5.10;;;;;;;;;;4712724;30;20575;-81
2023/06/20 20:14:11;;;;;;;9.95;5.53;;;;;;;;;;4789374;29;20108;-81
2023/06/20 20:27:17;;;;;;;9.50;5.40;;;;;;;;;;4800184;29;20038;-82
2023/06/20 20:30:06;;;;;;;14.40;5.35;;;;;;;;;;4782060;29;20081;-82
2023/06/20 20:35:57;;;;;;;12.98;5.68;;;;;;;;;;4729651;29;20067;-82
2023/06/20 20:45:32;;;;;;;11.55;5.57;;;;;;;;;;4799945;29;20047;-81
2023/06/20 20:51:55;;;;;;;13.43;6.40;;;;;;;;;;4732873;29;20043;-82
2023/06/20 21:06:24;;;;;;;16.58;5.78;;;;;;;;;;4776628;29;20483;-81
2023/06/20 21:09:12;;;;;;;;;;;;;;;;;;;;;
2023/06/20 21:11:44;;;;;;;13.52;5.63;;;;;;;;;;4799155;29;20045;-81
2023/06/20 21:14:22;;;;;;;;;;;;;;;;;;4785398;29;20713;-81
2023/06/20 21:17:33;;;;;;;;;;;;;;;;;;;;;
2023/06/20 21:20:27;;;;;;;;;;;;;;;;;;;;;
2023/06/20 21:22:53;;;;;;;13.75;6.07;;;;;;;;;;4785694;29;20073;-81
2023/06/20 21:25:24;;;;;;;11.85;6.28;;;;;;;;;;4753939;30;20727;-81
2023/06/20 21:27:55;;;;;;;13.75;5.90;;;;;;;;;;4746350;30;20454;-81
2023/06/20 21:30:34;;;;;;;11.45;5.90;;;;;;;;;;4745974;30;20131;-81
2023/06/20 21:33:07;;;;;;;13.35;5.43;;;;;;;;;;4731055;30;20189;-81
2023/06/20 21:45:16;;;;;;;11.43;6.50;;;;;;;;;;4720995;30;20044;-81
2023/06/20 21:47:54;;;;;;;13.27;5.80;;;;;;;;;;4764596;30;20135;-80
2023/06/20 21:50:28;;;;;;;11.77;6.00;;;;;;;;;;4768742;30;20051;-81
2023/06/20 21:53:00;;;;;;;10.65;5.65;;;;;;;;;;4773460;29;20144;-81
2023/06/20 21:55:59;;;;;;;;;;;;;;;;;;;;;
2023/06/20 21:58:45;;;;;;;13.13;6.13;;;;;;;;;;4782886;30;20043;-81
2023/06/20 22:01:27;;;;;;;13.20;6.28;;;;;;;;;;4766738;30;20055;-81
2023/06/20 22:03:53;;;;;;;14.23;5.88;;;;;;;;;;4768196;30;20055;-81
2023/06/20 22:06:19;;;;;;;9.75;5.70;;;;;;;;;;4783713;29;20039;-82
2023/06/20 22:09:02;;;;;;;11.52;5.95;;;;;;;;;;4767944;30;20055;-81
2023/06/20 22:11:39;;;;;;;14.05;5.65;;;;;;;;;;4767824;30;20059;-81
2023/06/20 22:14:08;;;;;;;12.48;6.28;;;;;;;;;;4775171;30;20054;-81
2023/06/20 22:16:55;;;;;;;12.65;7.22;;;;;;;;;;4761394;30;20475;-81
2023/06/20 22:19:26;;;;;;;11.50;6.35;;;;;;;;;;4767506;30;20562;-81
2023/06/20 22:21:53;;;;;;;14.23;6.07;;;;;;;;;;4762127;30;20055;-81
2023/06/20 22:24:32;;;;;;;;;;;;;;;;;;;;;
2023/06/20 22:26:58;;;;;;;10.38;5.90;;;;;;;;;;4791586;29;20397;-81
2023/06/20 22:29:27;;;;;;;11.77;6.20;;;;;;;;;;4768606;30;20051;-81
2023/06/20 22:32:13;;;;;;;12.82;6.30;;;;;;;;;;4775363;30;20105;-81
2023/06/20 22:35:05;;;;;;;12.65;6.38;;;;;;;;;;4783421;30;20116;-81
2023/06/20 22:37:46;;;;;;;14.90;6.15;;;;;;;;;;4766590;29;20056;-81
2023/06/20 22:40:45;;;;;;;11.97;5.87;;;;;;;;;;4761437;30;20039;-81
2023/06/20 22:43:45;;;;;;;14.60;6.22;;;;;;;;;;4714484;30;20510;-80
2023/06/20 22:55:38;;;;;;;;;;;;;;;;;;;;;
2023/06/20 23:04:24;;;;;;;10.90;5.65;;;;;;;;;;4787342;30;20134;-80
2023/06/20 23:06:59;;;;;;;10.73;6.22;;;;;;;;;;4767545;30;20480;-80
2023/06/20 23:09:47;;;;;;;10.57;6.20;;;;;;;;;;4784636;30;20043;-80
2023/06/20 23:27:22;;;;;;;;;;;;;;;;;;;;;
2023/06/20 23:30:10;;;;;;;11.82;5.97;;;;;;;;;;4721839;30;20083;-81
2023/06/20 23:32:39;;;;;;;11.75;5.80;;;;;;;;;;4752000;30;20047;-81
2023/06/20 23:35:25;;;;;;;11.75;6.57;;;;;;;;;;4767874;30;20047;-81
2023/06/20 23:38:11;;;;;;;10.98;6.45;;;;;;;;;;4740089;30;20052;-81
2023/06/20 23:44:22;;;;;;;13.27;6.43;;;;;;;;;;4727998;30;20115;-81
2023/06/20 23:47:04;;;;;;;13.07;6.22;;;;;;;;;;4747301;30;20248;-81
2023/06/20 23:49:59;;;;;;;11.85;6.03;;;;;;;;;;4758026;30;20155;-80
2023/06/20 23:53:07;;;;;;;12.40;6.63;;;;;;;;;;4763569;30;20035;-81
